Time;durP1;ratioP1;P1;durP2;ratioP2;P2;SDS_P1;SDS_P2;PMS_P1;PMS_P2;Temp;Humidity;BMP_temperature;BMP_pressure;BME280_temperature;BME280_humidity;BME280_pressure;Samples;Min_cycle;Max_cycle;Signal;HPM_P1;HPM_P2
2023/08/18 00:00:17;;;;;;;15.13;10.23;;;;;18.60;101288.00;;;;5026270;28;20237;-67
2023/08/18 00:03:04;;;;;;;15.43;10.13;;;;;18.70;101297.00;;;;5020945;28;20230;-67
2023/08/18 00:05:51;;;;;;;16.80;9.87;;;;;18.60;101291.00;;;;5017248;28;22534;-67
2023/08/18 00:08:38;;;;;;;13.27;9.10;;;;;18.60;101294.00;;;;5025889;28;20403;-67
2023/08/18 00:11:24;;;;;;;15.30;9.73;;;;;18.60;101297.00;;;;5023752;28;20303;-68
2023/08/18 00:14:11;;;;;;;15.30;10.47;;;;;18.50;101300.00;;;;5016813;28;20230;-67
2023/08/18 00:16:59;;;;;;;16.03;9.67;;;;;18.50;101296.00;;;;5021963;28;20749;-67
2023/08/18 00:19:45;;;;;;;16.00;10.67;;;;;18.50;101290.00;;;;5020299;28;20615;-67
2023/08/18 00:22:32;;;;;;;16.17;10.30;;;;;18.40;101290.00;;;;5024041;28;20233;-67
2023/08/18 00:25:19;;;;;;;17.77;10.60;;;;;18.40;101280.00;;;;5017863;28;20233;-68
2023/08/18 00:28:06;;;;;;;17.07;10.60;;;;;18.50;101276.00;;;;5021480;28;20327;-67
2023/08/18 00:30:52;;;;;;;19.03;10.43;;;;;18.60;101286.00;;;;5026150;28;20365;-67
2023/08/18 00:33:39;;;;;;;17.57;10.77;;;;;18.60;101283.00;;;;5017405;28;20230;-67
2023/08/18 00:36:27;;;;;;;19.30;11.53;;;;;18.60;101284.00;;;;5014177;28;20242;-67
2023/08/18 00:39:15;;;;;;;16.20;11.03;;;;;18.50;101284.00;;;;5024012;28;20516;-67
2023/08/18 00:42:01;;;;;;;16.93;11.10;;;;;18.50;101283.00;;;;5005748;28;20229;-68
2023/08/18 00:44:48;;;;;;;17.20;11.30;;;;;18.40;101286.00;;;;5027538;28;20260;-67
2023/08/18 00:47:34;;;;;;;20.67;12.83;;;;;18.30;101288.00;;;;5034457;28;20229;-67
2023/08/18 00:50:23;;;;;;;22.57;12.87;;;;;18.30;101293.00;;;;5022654;28;21282;-67
2023/08/18 00:53:11;;;;;;;20.53;12.53;;;;;18.30;101291.00;;;;5022045;28;20275;-67
2023/08/18 00:55:58;;;;;;;21.37;12.97;;;;;18.30;101284.00;;;;5025304;28;20229;-66
2023/08/18 00:58:44;;;;;;;22.23;13.57;;;;;18.30;101276.00;;;;5023641;28;20229;-66
2023/08/18 01:01:31;;;;;;;23.57;13.67;;;;;18.20;101281.00;;;;5017574;28;20246;-67
2023/08/18 01:04:17;;;;;;;23.70;13.50;;;;;18.20;101281.00;;;;5015388;28;20234;-67
2023/08/18 01:07:06;;;;;;;23.50;12.80;;;;;18.10;101274.00;;;;5023818;28;20241;-67
2023/08/18 01:09:52;;;;;;;20.87;12.47;;;;;18.00;101276.00;;;;5019140;28;20754;-67
2023/08/18 01:12:46;;;;;;;24.83;13.20;;;;;18.10;101278.00;;;;5017478;28;20249;-67
2023/08/18 01:15:36;;;;;;;21.80;13.13;;;;;18.00;101276.00;;;;5009772;28;20280;-67
2023/08/18 01:18:23;;;;;;;25.27;13.87;;;;;18.10;101267.00;;;;5015925;28;20631;-66
2023/08/18 01:21:12;;;;;;;25.63;13.57;;;;;18.00;101258.00;;;;5028657;28;20276;-66
2023/08/18 01:24:03;;;;;;;25.37;14.30;;;;;18.00;101269.00;;;;5022339;28;20767;-67
2023/08/18 01:26:49;;;;;;;23.07;13.70;;;;;18.10;101260.00;;;;5014640;28;20349;-67
2023/08/18 01:29:36;;;;;;;26.13;14.27;;;;;18.20;101274.00;;;;5021351;28;20233;-67
2023/08/18 01:32:29;;;;;;;26.67;13.97;;;;;18.20;101264.00;;;;5024015;28;20283;-67
2023/08/18 01:35:17;;;;;;;24.83;14.30;;;;;18.20;101268.00;;;;5025538;28;20242;-67
2023/08/18 01:38:04;;;;;;;23.80;14.03;;;;;18.30;101272.00;;;;5024798;28;20264;-67
2023/08/18 01:40:54;;;;;;;27.90;15.10;;;;;18.20;101256.00;;;;5023415;28;20579;-67
2023/08/18 01:43:40;;;;;;;23.40;13.10;;;;;18.20;101252.00;;;;5021561;28;20663;-67
2023/08/18 01:46:27;;;;;;;28.57;14.53;;;;;18.20;101251.00;;;;5027318;28;20238;-67
2023/08/18 01:49:13;;;;;;;27.43;14.70;;;;;18.20;101241.00;;;;5023674;28;20226;-67
2023/08/18 01:52:00;;;;;;;25.77;14.57;;;;;18.30;101245.00;;;;5018586;28;20300;-67
2023/08/18 01:54:46;;;;;;;25.27;14.50;;;;;18.30;101246.00;;;;5032766;28;20237;-67
2023/08/18 01:57:34;;;;;;;32.30;15.53;;;;;18.10;101239.00;;;;5030778;28;20233;-67
2023/08/18 02:00:21;;;;;;;26.47;14.47;;;;;18.10;101247.00;;;;5031842;28;20758;-67
2023/08/18 02:03:08;;;;;;;29.57;13.87;;;;;18.20;101240.00;;;;5025967;28;20238;-67
2023/08/18 02:05:55;;;;;;;28.83;14.83;;;;;18.20;101231.00;;;;5032659;28;20648;-67
2023/08/18 02:08:41;;;;;;;27.33;14.93;;;;;18.20;101228.00;;;;5031426;28;20225;-67
2023/08/18 02:11:28;;;;;;;25.43;13.07;;;;;18.20;101218.00;;;;5030709;28;20264;-67
2023/08/18 02:14:16;;;;;;;26.03;13.90;;;;;18.10;101205.00;;;;5028717;28;20237;-67
2023/08/18 02:17:03;;;;;;;26.93;13.60;;;;;18.10;101207.00;;;;5020363;28;20369;-68
2023/08/18 02:19:49;;;;;;;28.43;13.63;;;;;18.10;101213.00;;;;5028978;28;21012;-67
2023/08/18 02:22:35;;;;;;;31.60;14.37;;;;;18.10;101208.00;;;;5035902;28;20355;-67
2023/08/18 02:25:22;;;;;;;27.27;13.43;;;;;18.10;101200.00;;;;5035084;28;20761;-67
2023/08/18 02:28:09;;;;;;;26.70;14.00;;;;;18.20;101207.00;;;;5025054;28;20861;-67
2023/08/18 02:31:04;;;;;;;32.10;13.23;;;;;18.10;101211.00;;;;5025603;28;20238;-67
2023/08/18 02:33:51;;;;;;;26.50;12.60;;;;;18.10;101207.00;;;;5032148;28;20347;-67
2023/08/18 02:36:37;;;;;;;27.17;13.70;;;;;18.20;101207.00;;;;5037294;28;20306;-67
2023/08/18 02:39:24;;;;;;;23.70;12.50;;;;;18.00;101207.00;;;;5037294;28;20280;-67
2023/08/18 02:42:10;;;;;;;25.87;12.43;;;;;18.10;101204.00;;;;5044651;28;20295;-67
2023/08/18 02:44:56;;;;;;;25.60;13.00;;;;;18.10;101205.00;;;;5046084;28;20713;-67
2023/08/18 02:47:45;;;;;;;20.10;11.27;;;;;18.10;101204.00;;;;5036805;28;20237;-67
2023/08/18 02:50:32;;;;;;;22.90;11.43;;;;;18.00;101212.00;;;;5044459;28;20228;-67
2023/08/18 02:53:18;;;;;;;24.07;12.23;;;;;18.10;101199.00;;;;5044634;28;20237;-67
2023/08/18 02:56:05;;;;;;;24.90;11.53;;;;;18.00;101200.00;;;;5045180;28;20878;-67
2023/08/18 02:58:52;;;;;;;20.93;10.80;;;;;17.90;101201.00;;;;5040631;28;20305;-67
2023/08/18 03:01:38;;;;;;;19.10;10.90;;;;;18.00;101198.00;;;;5042018;28;20244;-67
2023/08/18 03:04:26;;;;;;;16.67;9.40;;;;;18.00;101194.00;;;;5043709;28;20935;-67
2023/08/18 03:07:12;;;;;;;18.33;9.93;;;;;17.90;101204.00;;;;5042995;28;20802;-67
2023/08/18 03:09:59;;;;;;;17.90;9.83;;;;;17.80;101208.00;;;;5041880;28;20228;-67
2023/08/18 03:12:46;;;;;;;20.10;10.30;;;;;17.90;101208.00;;;;5042110;28;20314;-67
2023/08/18 03:15:33;;;;;;;16.43;9.60;;;;;17.90;101209.00;;;;5037651;28;20290;-67
2023/08/18 03:18:19;;;;;;;18.60;9.90;;;;;18.00;101204.00;;;;5037013;28;20359;-67
2023/08/18 03:21:07;;;;;;;18.20;9.63;;;;;18.00;101203.00;;;;5043611;28;20236;-67
2023/08/18 03:23:53;;;;;;;20.53;9.77;;;;;17.90;101204.00;;;;5040336;28;20303;-67
2023/08/18 03:26:40;;;;;;;18.43;9.37;;;;;18.00;101215.00;;;;5035625;28;20240;-67
2023/08/18 03:29:26;;;;;;;20.33;10.27;;;;;17.90;101202.00;;;;5043877;28;22394;-67
2023/08/18 03:32:13;;;;;;;19.87;10.03;;;;;17.90;101203.00;;;;5044391;28;20236;-68
2023/08/18 03:34:59;;;;;;;19.13;9.80;;;;;17.90;101194.00;;;;5029221;28;20701;-67
2023/08/18 03:37:47;;;;;;;20.13;10.53;;;;;17.90;101198.00;;;;5045236;28;20232;-67
2023/08/18 03:40:34;;;;;;;20.83;10.73;;;;;17.90;101199.00;;;;5032735;28;20248;-67
2023/08/18 03:43:20;;;;;;;20.63;9.87;;;;;18.00;101196.00;;;;5044821;28;20228;-67
2023/08/18 03:46:20;;;;;;;19.27;9.63;;;;;17.90;101198.00;;;;5030765;28;20351;-67
2023/08/18 03:49:06;;;;;;;21.07;10.20;;;;;17.90;101192.00;;;;5024330;28;20232;-67
2023/08/18 03:51:53;;;;;;;22.37;9.97;;;;;17.90;101197.00;;;;5025128;28;20242;-67
2023/08/18 03:54:41;;;;;;;21.30;9.70;;;;;17.90;101193.00;;;;5018316;28;20233;-68
2023/08/18 03:57:28;;;;;;;21.47;10.20;;;;;17.90;101197.00;;;;5027350;28;20356;-67
2023/08/18 04:00:17;;;;;;;23.10;10.10;;;;;17.80;101196.00;;;;5021939;28;20759;-67
2023/08/18 04:03:04;;;;;;;20.40;10.07;;;;;17.90;101188.00;;;;5024343;28;20236;-67
2023/08/18 04:05:51;;;;;;;18.10;9.60;;;;;17.90;101203.00;;;;5012692;28;20311;-66
2023/08/18 04:08:41;;;;;;;19.40;9.57;;;;;18.00;101194.00;;;;5019125;28;20716;-67
2023/08/18 04:11:28;;;;;;;18.83;9.20;;;;;17.80;101190.00;;;;5022343;28;20234;-67
2023/08/18 04:14:16;;;;;;;20.13;9.93;;;;;17.90;101193.00;;;;5021416;28;20236;-67
2023/08/18 04:17:03;;;;;;;23.40;10.23;;;;;18.00;101195.00;;;;5017716;28;20946;-68
2023/08/18 04:19:49;;;;;;;20.80;10.07;;;;;18.00;101187.00;;;;5021965;28;20296;-67
2023/08/18 04:22:37;;;;;;;19.10;10.03;;;;;18.00;101196.00;;;;5036212;28;20221;-67
2023/08/18 04:25:23;;;;;;;20.17;10.17;;;;;18.00;101190.00;;;;5027479;28;20251;-67
2023/08/18 04:28:11;;;;;;;19.60;10.00;;;;;18.00;101193.00;;;;5023449;28;20245;-67
2023/08/18 04:30:59;;;;;;;20.07;9.90;;;;;18.00;101189.00;;;;5015592;28;20230;-67
2023/08/18 04:33:45;;;;;;;21.33;10.73;;;;;18.00;101188.00;;;;5024566;28;20229;-68
2023/08/18 04:36:32;;;;;;;21.80;10.80;;;;;18.00;101188.00;;;;5021526;28;20233;-67
2023/08/18 04:39:19;;;;;;;18.77;10.20;;;;;18.00;101187.00;;;;5013751;28;20626;-68
2023/08/18 04:42:06;;;;;;;17.37;9.43;;;;;18.00;101188.00;;;;5033889;28;20233;-68
2023/08/18 04:44:54;;;;;;;21.23;10.03;;;;;17.90;101197.00;;;;5021875;28;20374;-67
2023/08/18 04:47:41;;;;;;;21.47;10.77;;;;;17.90;101197.00;;;;5011927;28;20233;-67
2023/08/18 04:50:27;;;;;;;20.77;10.60;;;;;18.00;101191.00;;;;5026837;28;20424;-67
2023/08/18 04:53:13;;;;;;;24.97;11.07;;;;;18.00;101189.00;;;;5017158;28;20308;-67
2023/08/18 04:56:02;;;;;;;21.00;10.37;;;;;18.00;101194.00;;;;5032733;28;21091;-67
2023/08/18 04:58:49;;;;;;;18.33;9.73;;;;;17.90;101194.00;;;;5019332;28;20610;-67
2023/08/18 05:01:37;;;;;;;20.33;10.97;;;;;18.00;101197.00;;;;5022308;28;20241;-67
2023/08/18 05:04:24;;;;;;;22.07;10.10;;;;;18.00;101185.00;;;;5016422;28;20233;-67
2023/08/18 05:07:10;;;;;;;22.33;10.83;;;;;18.10;101187.00;;;;5024874;28;20240;-67
2023/08/18 05:09:57;;;;;;;22.60;10.93;;;;;18.10;101184.00;;;;5014788;28;20980;-67
2023/08/18 05:12:43;;;;;;;19.13;10.67;;;;;18.10;101185.00;;;;5024039;28;20277;-67
2023/08/18 05:15:30;;;;;;;21.30;11.33;;;;;18.10;101185.00;;;;5025944;28;20373;-67
2023/08/18 05:18:17;;;;;;;19.37;10.00;;;;;18.00;101180.00;;;;5018446;28;20238;-67
2023/08/18 05:21:05;;;;;;;17.97;9.53;;;;;18.00;101178.00;;;;5041650;28;20908;-67
2023/08/18 05:23:51;;;;;;;18.33;9.93;;;;;18.00;101183.00;;;;5021001;28;20272;-67
2023/08/18 05:26:38;;;;;;;19.70;10.70;;;;;18.10;101175.00;;;;5026820;28;20244;-67
2023/08/18 05:29:25;;;;;;;22.60;10.37;;;;;18.10;101179.00;;;;5019709;28;20247;-67
2023/08/18 05:32:11;;;;;;;20.53;10.23;;;;;18.10;101182.00;;;;5027263;28;20729;-68
2023/08/18 05:35:00;;;;;;;23.30;12.00;;;;;18.10;101183.00;;;;5026566;28;20237;-67
2023/08/18 05:37:46;;;;;;;23.07;11.33;;;;;18.10;101181.00;;;;5027759;28;20742;-68
2023/08/18 05:40:33;;;;;;;22.87;11.87;;;;;18.10;101182.00;;;;5031233;28;20234;-68
2023/08/18 05:43:19;;;;;;;18.73;10.57;;;;;18.10;101182.00;;;;5026678;28;20237;-68
2023/08/18 05:46:06;;;;;;;18.03;9.63;;;;;18.10;101186.00;;;;5026455;28;20279;-68
2023/08/18 05:48:52;;;;;;;20.13;10.30;;;;;18.10;101190.00;;;;5024002;28;20237;-68
2023/08/18 05:51:43;;;;;;;19.57;9.90;;;;;18.10;101192.00;;;;5017579;28;20234;-68
2023/08/18 05:54:29;;;;;;;22.07;10.77;;;;;18.10;101185.00;;;;5030657;28;20300;-65
2023/08/18 05:57:18;;;;;;;23.27;11.17;;;;;18.00;101180.00;;;;5038543;28;20742;-67
2023/08/18 06:00:05;;;;;;;22.20;11.50;;;;;18.00;101173.00;;;;5038987;28;20259;-66
2023/08/18 06:02:53;;;;;;;21.07;11.33;;;;;18.10;101182.00;;;;5047179;28;20224;-66
2023/08/18 06:05:40;;;;;;;21.80;11.47;;;;;18.10;101176.00;;;;5044519;28;20231;-66
2023/08/18 06:08:28;;;;;;;22.00;11.03;;;;;18.20;101179.00;;;;5043282;28;20669;-66
2023/08/18 06:11:15;;;;;;;21.83;11.37;;;;;18.10;101173.00;;;;5043055;28;20360;-67
2023/08/18 06:14:01;;;;;;;24.20;11.17;;;;;18.10;101177.00;;;;5040405;28;20769;-67
2023/08/18 06:16:48;;;;;;;19.00;10.83;;;;;18.10;101193.00;;;;5037191;28;20797;-68
2023/08/18 06:19:34;;;;;;;19.70;10.10;;;;;18.20;101186.00;;;;5034583;28;20352;-70
2023/08/18 06:22:20;;;;;;;17.50;9.87;;;;;18.10;101196.00;;;;5027823;28;20761;-68
2023/08/18 06:25:11;;;;;;;19.10;9.97;;;;;18.20;101198.00;;;;5021344;28;20316;-69
2023/08/18 06:27:57;;;;;;;17.73;10.07;;;;;18.20;101199.00;;;;5027449;28;20294;-69
2023/08/18 06:30:44;;;;;;;20.23;10.63;;;;;18.20;101202.00;;;;5027166;28;20225;-68
2023/08/18 06:33:30;;;;;;;15.77;9.17;;;;;18.20;101202.00;;;;5028728;28;20723;-69
2023/08/18 06:36:17;;;;;;;17.83;10.10;;;;;18.20;101216.00;;;;5034747;28;20233;-68
2023/08/18 06:39:04;;;;;;;16.43;8.73;;;;;18.10;101217.00;;;;5023934;28;20225;-68
2023/08/18 06:41:52;;;;;;;19.50;8.73;;;;;18.20;101214.00;;;;5019822;28;20753;-69
2023/08/18 06:44:39;;;;;;;16.93;9.83;;;;;18.20;101212.00;;;;5029343;28;20734;-70
2023/08/18 06:47:25;;;;;;;15.53;8.97;;;;;18.20;101216.00;;;;5024607;28;20241;-69
2023/08/18 06:50:12;;;;;;;15.80;8.63;;;;;18.10;101203.00;;;;5025926;28;20265;-69
2023/08/18 06:52:58;;;;;;;16.77;9.40;;;;;18.20;101203.00;;;;5019927;28;20229;-70
2023/08/18 06:55:44;;;;;;;23.50;9.23;;;;;18.20;101196.00;;;;5026078;28;20230;-69
2023/08/18 06:58:49;;;;;;;16.87;9.33;;;;;18.30;101209.00;;;;5025945;28;20220;-69
2023/08/18 07:01:36;;;;;;;14.60;8.53;;;;;18.20;101207.00;;;;5028288;28;20377;-69
2023/08/18 07:04:22;;;;;;;15.73;8.40;;;;;18.30;101204.00;;;;5038675;28;20232;-70
2023/08/18 07:07:09;;;;;;;10.50;6.50;;;;;18.40;101196.00;;;;5034007;28;20614;-69
2023/08/18 07:09:55;;;;;;;13.40;8.07;;;;;18.30;101197.00;;;;5027689;28;20596;-68
2023/08/18 07:12:42;;;;;;;13.80;7.63;;;;;18.50;101193.00;;;;5024799;28;21148;-68
2023/08/18 07:15:30;;;;;;;12.10;7.70;;;;;18.50;101198.00;;;;5017150;28;20234;-68
2023/08/18 07:18:18;;;;;;;11.53;6.60;;;;;18.60;101195.00;;;;5027083;28;20233;-68
2023/08/18 07:21:05;;;;;;;13.13;7.67;;;;;18.60;101194.00;;;;5025557;28;20353;-68
2023/08/18 07:23:52;;;;;;;12.13;6.87;;;;;18.60;101187.00;;;;5015886;28;20837;-68
2023/08/18 07:26:38;;;;;;;13.50;7.30;;;;;18.60;101193.00;;;;5025528;28;20299;-69
2023/08/18 07:29:25;;;;;;;13.80;8.03;;;;;18.60;101198.00;;;;5025478;28;20237;-68
2023/08/18 07:32:12;;;;;;;13.00;7.60;;;;;18.60;101195.00;;;;5041908;28;20228;-69
2023/08/18 07:34:59;;;;;;;13.13;7.60;;;;;18.60;101200.00;;;;5032333;28;20245;-69
2023/08/18 07:37:45;;;;;;;16.77;8.40;;;;;18.80;101208.00;;;;5028843;28;20253;-69
2023/08/18 07:40:34;;;;;;;13.90;7.80;;;;;18.90;101207.00;;;;5022152;28;20230;-69
2023/08/18 07:43:21;;;;;;;13.83;8.20;;;;;18.90;101206.00;;;;5020311;28;20309;-69
2023/08/18 07:46:10;;;;;;;16.17;8.53;;;;;18.90;101200.00;;;;5016520;28;20299;-68
2023/08/18 07:48:58;;;;;;;13.80;7.83;;;;;19.00;101205.00;;;;5024154;28;20333;-69
2023/08/18 07:51:44;;;;;;;15.57;8.13;;;;;19.00;101199.00;;;;5017960;28;20616;-69
2023/08/18 07:54:31;;;;;;;12.93;7.63;;;;;18.90;101194.00;;;;5034252;28;20243;-69
2023/08/18 07:57:18;;;;;;;14.50;8.43;;;;;19.00;101188.00;;;;5024054;28;20982;-69
2023/08/18 08:00:10;;;;;;;16.37;8.27;;;;;19.00;101180.00;;;;5020416;28;20250;-68
2023/08/18 08:02:56;;;;;;;14.97;8.93;;;;;19.10;101179.00;;;;5033775;28;20232;-69
2023/08/18 08:05:44;;;;;;;14.67;8.50;;;;;19.10;101191.00;;;;5047953;28;20230;-67
2023/08/18 08:08:31;;;;;;;15.57;9.07;;;;;19.10;101175.00;;;;5039765;28;20283;-68
2023/08/18 08:11:17;;;;;;;14.53;8.27;;;;;19.20;101183.00;;;;5037951;28;20226;-69
2023/08/18 08:14:04;;;;;;;14.73;8.87;;;;;19.20;101179.00;;;;5052695;28;20229;-69
2023/08/18 08:16:50;;;;;;;18.00;9.27;;;;;19.10;101186.00;;;;5037336;28;20294;-67
2023/08/18 08:19:37;;;;;;;19.27;9.87;;;;;19.30;101197.00;;;;5036353;28;20229;-69
2023/08/18 08:22:25;;;;;;;15.30;8.60;;;;;19.50;101191.00;;;;5045476;28;20237;-67
2023/08/18 08:25:12;;;;;;;19.43;9.57;;;;;19.40;101185.00;;;;5032294;28;20251;-68
2023/08/18 08:27:59;;;;;;;19.33;9.63;;;;;19.40;101182.00;;;;5022628;28;20240;-67
2023/08/18 08:30:46;;;;;;;16.57;9.47;;;;;19.50;101196.00;;;;5023880;28;20272;-67
2023/08/18 08:33:33;;;;;;;20.03;9.73;;;;;19.60;101190.00;;;;5024610;28;20693;-68
2023/08/18 08:36:19;;;;;;;21.20;10.13;;;;;19.70;101193.00;;;;5027514;28;20234;-67
2023/08/18 08:39:09;;;;;;;17.10;9.73;;;;;19.70;101194.00;;;;5033340;28;20229;-68
2023/08/18 08:41:55;;;;;;;19.47;10.03;;;;;19.60;101189.00;;;;5047472;28;20805;-68
2023/08/18 08:44:43;;;;;;;20.20;10.70;;;;;19.70;101186.00;;;;5037387;28;20600;-68
2023/08/18 08:47:30;;;;;;;20.10;10.33;;;;;19.80;101188.00;;;;5029091;28;20234;-68
2023/08/18 08:50:18;;;;;;;19.90;9.97;;;;;19.90;101186.00;;;;5023862;28;20245;-69
2023/08/18 08:53:05;;;;;;;22.97;10.77;;;;;20.10;101194.00;;;;5026399;28;20354;-69
2023/08/18 08:55:55;;;;;;;22.37;11.60;;;;;20.00;101187.00;;;;5020259;28;20350;-68
2023/08/18 08:58:42;;;;;;;21.83;11.10;;;;;20.00;101189.00;;;;5028321;28;20718;-68
2023/08/18 09:01:29;;;;;;;19.03;10.77;;;;;20.10;101193.00;;;;5024939;28;20229;-68
2023/08/18 09:04:16;;;;;;;21.20;10.77;;;;;20.10;101191.00;;;;5026597;28;20748;-68
2023/08/18 09:07:03;;;;;;;19.47;10.00;;;;;20.10;101192.00;;;;5022208;28;20235;-69
2023/08/18 09:09:50;;;;;;;18.87;10.63;;;;;20.10;101190.00;;;;5027612;28;20314;-69
2023/08/18 09:12:38;;;;;;;19.90;10.87;;;;;20.20;101186.00;;;;5027697;28;20231;-69
2023/08/18 09:15:26;;;;;;;18.20;10.60;;;;;20.30;101179.00;;;;5027770;28;20245;-69
2023/08/18 09:18:13;;;;;;;15.63;9.23;;;;;20.40;101190.00;;;;5026974;28;20359;-69
2023/08/18 09:21:00;;;;;;;20.90;10.67;;;;;20.50;101193.00;;;;5021302;28;20646;-68
2023/08/18 09:23:47;;;;;;;17.13;10.00;;;;;20.50;101190.00;;;;5026616;28;20811;-68
2023/08/18 09:26:33;;;;;;;17.57;10.40;;;;;20.50;101181.00;;;;5027256;28;20781;-68
2023/08/18 09:29:21;;;;;;;18.10;9.50;;;;;20.70;101185.00;;;;5029794;28;20244;-68
2023/08/18 09:32:08;;;;;;;18.80;10.07;;;;;20.80;101176.00;;;;5024730;28;20278;-69
2023/08/18 09:34:58;;;;;;;16.70;9.63;;;;;20.80;101172.00;;;;5022156;28;20700;-68
2023/08/18 09:37:44;;;;;;;14.40;9.20;;;;;20.90;101170.00;;;;5026812;28;20820;-69
2023/08/18 09:40:31;;;;;;;15.53;9.27;;;;;20.90;101171.00;;;;5027828;28;20235;-68
2023/08/18 09:43:17;;;;;;;14.80;9.00;;;;;20.80;101171.00;;;;5018411;28;20225;-69
2023/08/18 09:46:06;;;;;;;12.07;8.63;;;;;21.10;101167.00;;;;5010336;28;20267;-69
2023/08/18 09:48:54;;;;;;;11.87;8.80;;;;;21.20;101166.00;;;;5025438;28;20733;-68
2023/08/18 09:51:40;;;;;;;12.63;8.43;;;;;21.10;101167.00;;;;5021363;28;20306;-69
2023/08/18 09:54:29;;;;;;;12.10;8.93;;;;;21.10;101169.00;;;;5020151;28;20232;-68
2023/08/18 09:57:21;;;;;;;13.17;9.07;;;;;21.10;101167.00;;;;5034311;28;20646;-69
2023/08/18 10:00:14;;;;;;;13.60;9.27;;;;;21.20;101169.00;;;;5037763;28;20231;-69
2023/08/18 10:03:03;;;;;;;14.17;9.93;;;;;21.30;101168.00;;;;5019851;28;20226;-68
2023/08/18 10:05:50;;;;;;;14.60;10.07;;;;;21.50;101163.00;;;;5026264;28;20277;-68
2023/08/18 10:08:36;;;;;;;13.23;9.20;;;;;21.60;101147.00;;;;5022944;28;20880;-69
2023/08/18 10:11:22;;;;;;;11.93;8.80;;;;;21.80;101150.00;;;;5026473;28;20233;-68
2023/08/18 10:14:18;;;;;;;10.93;8.37;;;;;22.00;101147.00;;;;5026287;28;20237;-69
2023/08/18 10:17:06;;;;;;;11.57;8.27;;;;;22.00;101159.00;;;;5018163;28;20236;-68
2023/08/18 10:20:00;;;;;;;10.80;7.87;;;;;21.90;101153.00;;;;5018730;28;20232;-68
2023/08/18 10:22:46;;;;;;;11.47;8.20;;;;;22.00;101160.00;;;;5025032;28;20306;-68
2023/08/18 10:25:35;;;;;;;11.73;8.17;;;;;22.20;101158.00;;;;5015929;28;20633;-69
2023/08/18 10:28:28;;;;;;;11.47;8.43;;;;;22.30;101162.00;;;;5024364;28;20319;-68
2023/08/18 10:31:16;;;;;;;11.27;8.33;;;;;22.40;101155.00;;;;5024434;28;20607;-68
2023/08/18 10:34:03;;;;;;;12.40;8.47;;;;;22.50;101145.00;;;;5020397;28;20230;-68
2023/08/18 10:36:59;;;;;;;10.93;8.17;;;;;22.60;101149.00;;;;5023293;28;20230;-69
2023/08/18 10:39:46;;;;;;;9.57;8.00;;;;;22.80;101153.00;;;;5035259;28;20225;-68
2023/08/18 10:42:33;;;;;;;10.43;8.07;;;;;22.80;101159.00;;;;5023063;28;20301;-69
2023/08/18 10:45:26;;;;;;;10.67;8.37;;;;;22.80;101153.00;;;;5034824;28;20860;-69
2023/08/18 10:48:12;;;;;;;11.60;8.60;;;;;22.70;101148.00;;;;5022733;28;20242;-69
2023/08/18 10:51:01;;;;;;;10.93;8.27;;;;;22.90;101143.00;;;;5020987;28;20253;-68
2023/08/18 10:53:50;;;;;;;10.20;7.20;;;;;22.80;101146.00;;;;5025069;28;20706;-68
2023/08/18 10:56:37;;;;;;;12.07;8.60;;;;;23.00;101147.00;;;;5022917;28;20241;-68
2023/08/18 10:59:23;;;;;;;11.73;7.93;;;;;23.20;101143.00;;;;5025964;28;20824;-68
2023/08/18 11:02:12;;;;;;;11.53;7.80;;;;;23.40;101135.00;;;;5025176;28;20300;-68
2023/08/18 11:05:00;;;;;;;10.73;7.90;;;;;23.60;101126.00;;;;5025666;28;20745;-69
2023/08/18 11:07:47;;;;;;;10.10;7.83;;;;;23.90;101128.00;;;;5025385;28;20268;-68
2023/08/18 11:10:35;;;;;;;13.43;8.13;;;;;24.10;101126.00;;;;5014316;28;20244;-69
2023/08/18 11:13:23;;;;;;;12.00;8.50;;;;;24.20;101124.00;;;;5014336;28;20719;-69
2023/08/18 11:16:10;;;;;;;9.90;7.80;;;;;24.10;101121.00;;;;5024931;28;20229;-70
2023/08/18 11:18:57;;;;;;;10.27;7.50;;;;;24.20;101115.00;;;;5022624;28;20233;-71
2023/08/18 11:21:43;;;;;;;10.30;7.77;;;;;24.20;101114.00;;;;5027504;28;20233;-71
2023/08/18 11:24:29;;;;;;;9.60;6.97;;;;;24.40;101121.00;;;;5024286;28;20233;-70
2023/08/18 11:27:17;;;;;;;12.13;7.73;;;;;24.40;101112.00;;;;5022953;28;20377;-71
2023/08/18 11:30:05;;;;;;;8.87;7.60;;;;;24.60;101107.00;;;;5023158;28;20233;-69
2023/08/18 11:32:53;;;;;;;10.90;7.50;;;;;24.70;101104.00;;;;5022250;28;20253;-71
2023/08/18 11:35:40;;;;;;;11.33;7.33;;;;;24.90;101099.00;;;;5018476;28;20911;-70
2023/08/18 11:38:26;;;;;;;10.80;7.10;;;;;25.10;101088.00;;;;5021936;28;20232;-71
2023/08/18 11:41:13;;;;;;;11.35;8.30;;;;;25.10;101088.00;;;;5021923;28;20264;-71
2023/08/18 11:44:02;;;;;;;10.45;7.88;;;;;25.10;101084.00;;;;5016879;28;20221;-70
2023/08/18 11:46:49;;;;;;;10.90;7.82;;;;;25.20;101080.00;;;;5021809;28;20257;-69
2023/08/18 11:49:36;;;;;;;13.57;8.73;;;;;25.30;101074.00;;;;5022073;28;20361;-72
2023/08/18 11:52:23;;;;;;;13.05;8.23;;;;;25.40;101076.00;;;;5017971;28;20308;-70
2023/08/18 11:55:09;;;;;;;13.57;9.32;;;;;25.50;101065.00;;;;5019929;28;20292;-69
2023/08/18 11:57:56;;;;;;;11.38;8.07;;;;;25.40;101070.00;;;;5024170;28;20379;-71
2023/08/18 12:00:45;;;;;;;16.10;7.82;;;;;25.60;101062.00;;;;5024709;28;20233;-68
2023/08/18 12:03:32;;;;;;;12.75;9.15;;;;;25.80;101074.00;;;;5023756;28;20238;-69
2023/08/18 12:06:23;;;;;;;13.68;8.25;;;;;25.80;101061.00;;;;5025757;28;20237;-68
2023/08/18 12:09:12;;;;;;;15.13;8.85;;;;;25.80;101062.00;;;;5018706;28;20237;-69
2023/08/18 12:11:59;;;;;;;10.68;7.65;;;;;25.90;101054.00;;;;5035354;28;20249;-69
2023/08/18 12:14:45;;;;;;;12.43;8.68;;;;;26.10;101052.00;;;;5027205;28;20697;-68
2023/08/18 12:17:34;;;;;;;12.10;8.55;;;;;26.10;101049.00;;;;5032632;28;20293;-69
2023/08/18 12:20:21;;;;;;;12.23;7.95;;;;;26.30;101052.00;;;;5030932;28;20236;-68
2023/08/18 12:23:08;;;;;;;13.75;8.40;;;;;26.40;101049.00;;;;5030381;28;20228;-69
2023/08/18 12:25:54;;;;;;;13.02;7.55;;;;;26.60;101041.00;;;;5027184;28;21008;-69
2023/08/18 12:28:40;;;;;;;11.65;7.40;;;;;26.80;101037.00;;;;5019421;28;20690;-69
2023/08/18 12:31:26;;;;;;;12.73;7.43;;;;;26.80;101031.00;;;;5033342;28;20233;-69
2023/08/18 12:34:14;;;;;;;11.27;7.07;;;;;27.00;101038.00;;;;5021896;28;20229;-68
2023/08/18 12:37:00;;;;;;;9.07;7.13;;;;;27.20;101038.00;;;;5020728;28;20295;-69
2023/08/18 12:39:47;;;;;;;10.38;7.10;;;;;27.40;101030.00;;;;5023823;28;20233;-69
2023/08/18 12:42:34;;;;;;;11.35;7.38;;;;;27.40;101027.00;;;;5024929;28;20233;-69
2023/08/18 12:45:20;;;;;;;10.35;6.63;;;;;27.30;101033.00;;;;5018608;28;20241;-69
2023/08/18 12:48:07;;;;;;;10.27;6.95;;;;;27.40;101027.00;;;;5017693;28;20229;-70
2023/08/18 12:50:55;;;;;;;9.73;6.95;;;;;27.70;101024.00;;;;5012762;28;20333;-70
2023/08/18 12:53:41;;;;;;;8.00;6.47;;;;;27.90;101027.00;;;;5020155;28;20826;-70
2023/08/18 12:56:27;;;;;;;9.40;6.45;;;;;28.00;101034.00;;;;5021404;28;20236;-70
2023/08/18 12:59:14;;;;;;;9.90;6.40;;;;;28.00;101029.00;;;;5014689;28;20226;-68
2023/08/18 13:02:00;;;;;;;7.72;6.30;;;;;28.20;101028.00;;;;5031399;28;20235;-68
2023/08/18 13:04:47;;;;;;;9.48;6.68;;;;;28.20;101027.00;;;;5014076;28;20336;-68
2023/08/18 13:07:34;;;;;;;8.93;6.15;;;;;28.30;101021.00;;;;5035556;28;20237;-68
2023/08/18 13:10:21;;;;;;;7.05;6.03;;;;;28.40;101021.00;;;;5026043;28;20284;-67
2023/08/18 13:13:07;;;;;;;8.95;6.60;;;;;28.50;101028.00;;;;5039693;28;20885;-69
2023/08/18 13:15:54;;;;;;;10.50;6.75;;;;;28.70;101030.00;;;;5043880;28;20270;-67
2023/08/18 13:18:40;;;;;;;12.10;7.00;;;;;28.80;101033.00;;;;5041433;28;20229;-67
2023/08/18 13:21:28;;;;;;;11.10;7.50;;;;;28.80;101026.00;;;;5043289;28;20252;-67
2023/08/18 13:24:15;;;;;;;9.50;7.43;;;;;28.90;101017.00;;;;5037505;28;20859;-67
2023/08/18 13:27:02;;;;;;;10.40;7.78;;;;;29.10;101019.00;;;;5047898;28;20228;-69
2023/08/18 13:29:48;;;;;;;11.52;7.95;;;;;29.00;101016.00;;;;5047005;28;20232;-67
2023/08/18 13:32:35;;;;;;;11.88;7.53;;;;;29.10;101019.00;;;;5047472;28;20224;-67